sensor_id;sensor_type;location;lat;lon;timestamp;pressure;altitude;pressure_sealevel;temperature;humidity
39455;BME280;25155;41.890;23.446;2024-01-30T00:00:49;93501.00;;;-2.92;51.45
39455;BME280;25155;41.890;23.446;2024-01-30T00:03:16;93500.31;;;-2.95;51.80
39455;BME280;25155;41.890;23.446;2024-01-30T00:05:43;93486.38;;;-3.00;51.60
39455;BME280;25155;41.890;23.446;2024-01-30T00:08:11;93501.44;;;-2.97;51.39
39455;BME280;25155;41.890;23.446;2024-01-30T00:10:39;93499.34;;;-3.02;51.38
39455;BME280;25155;41.890;23.446;2024-01-30T00:13:07;93497.09;;;-3.05;51.73
39455;BME280;25155;41.890;23.446;2024-01-30T00:15:34;93502.00;;;-3.12;51.91
39455;BME280;25155;41.890;23.446;2024-01-30T00:18:01;93502.16;;;-3.13;51.99
39455;BME280;25155;41.890;23.446;2024-01-30T00:20:29;93507.72;;;-3.18;51.54
39455;BME280;25155;41.890;23.446;2024-01-30T00:22:56;93502.75;;;-3.19;51.94
39455;BME280;25155;41.890;23.446;2024-01-30T00:25:23;93502.28;;;-3.23;51.71
39455;BME280;25155;41.890;23.446;2024-01-30T00:27:51;93507.34;;;-3.31;52.11
39455;BME280;25155;41.890;23.446;2024-01-30T00:30:20;93512.31;;;-3.56;53.83
39455;BME280;25155;41.890;23.446;2024-01-30T00:32:47;93513.16;;;-3.73;54.69
39455;BME280;25155;41.890;23.446;2024-01-30T00:35:15;93513.97;;;-3.73;54.16
39455;BME280;25155;41.890;23.446;2024-01-30T00:37:42;93508.25;;;-3.67;54.40
39455;BME280;25155;41.890;23.446;2024-01-30T00:40:10;93512.78;;;-3.60;53.82
39455;BME280;25155;41.890;23.446;2024-01-30T00:42:41;93509.75;;;-3.56;53.82
39455;BME280;25155;41.890;23.446;2024-01-30T00:45:13;93510.72;;;-3.57;53.48
39455;BME280;25155;41.890;23.446;2024-01-30T00:47:41;93509.31;;;-3.51;53.35
39455;BME280;25155;41.890;23.446;2024-01-30T00:50:08;93499.53;;;-3.56;53.06
39455;BME280;25155;41.890;23.446;2024-01-30T00:52:36;93514.13;;;-3.48;52.90
39455;BME280;25155;41.890;23.446;2024-01-30T00:55:05;93511.56;;;-3.48;52.95
39455;BME280;25155;41.890;23.446;2024-01-30T00:57:33;93509.81;;;-3.47;52.50
39455;BME280;25155;41.890;23.446;2024-01-30T01:00:00;93507.41;;;-3.49;52.88
39455;BME280;25155;41.890;23.446;2024-01-30T01:02:28;93501.00;;;-3.53;52.77
39455;BME280;25155;41.890;23.446;2024-01-30T01:04:55;93508.03;;;-3.55;52.68
39455;BME280;25155;41.890;23.446;2024-01-30T01:07:23;93505.25;;;-3.62;52.51
39455;BME280;25155;41.890;23.446;2024-01-30T01:09:50;93509.19;;;-3.68;52.31
39455;BME280;25155;41.890;23.446;2024-01-30T01:12:17;93498.75;;;-3.74;52.40
39455;BME280;25155;41.890;23.446;2024-01-30T01:14:44;93513.31;;;-3.75;52.69
39455;BME280;25155;41.890;23.446;2024-01-30T01:17:12;93501.41;;;-3.84;52.36
39455;BME280;25155;41.890;23.446;2024-01-30T01:19:40;93509.03;;;-3.92;53.33
39455;BME280;25155;41.890;23.446;2024-01-30T01:22:07;93509.16;;;-3.94;53.30
39455;BME280;25155;41.890;23.446;2024-01-30T01:24:36;93504.38;;;-3.97;52.51
39455;BME280;25155;41.890;23.446;2024-01-30T01:27:03;93495.81;;;-4.06;52.81
39455;BME280;25155;41.890;23.446;2024-01-30T01:29:31;93504.16;;;-4.03;53.22
39455;BME280;25155;41.890;23.446;2024-01-30T01:31:58;93498.22;;;-4.04;52.88
39455;BME280;25155;41.890;23.446;2024-01-30T01:34:25;93506.88;;;-4.05;52.72
39455;BME280;25155;41.890;23.446;2024-01-30T01:36:54;93500.28;;;-4.08;52.77
39455;BME280;25155;41.890;23.446;2024-01-30T01:39:22;93496.72;;;-4.15;52.44
39455;BME280;25155;41.890;23.446;2024-01-30T01:41:50;93504.22;;;-4.13;52.53
39455;BME280;25155;41.890;23.446;2024-01-30T01:44:17;93504.22;;;-4.13;52.88
39455;BME280;25155;41.890;23.446;2024-01-30T01:46:45;93501.81;;;-4.15;52.28
39455;BME280;25155;41.890;23.446;2024-01-30T01:49:14;93501.47;;;-4.20;52.76
39455;BME280;25155;41.890;23.446;2024-01-30T01:51:42;93494.09;;;-4.23;52.69
39455;BME280;25155;41.890;23.446;2024-01-30T01:54:11;93497.66;;;-4.34;53.70
39455;BME280;25155;41.890;23.446;2024-01-30T01:56:39;93498.75;;;-4.36;53.51
39455;BME280;25155;41.890;23.446;2024-01-30T01:59:08;93496.34;;;-4.38;53.46
39455;BME280;25155;41.890;23.446;2024-01-30T02:01:36;93494.28;;;-4.34;53.36
39455;BME280;25155;41.890;23.446;2024-01-30T02:04:04;93500.06;;;-4.32;53.78
39455;BME280;25155;41.890;23.446;2024-01-30T02:06:32;93507.59;;;-4.31;53.64
39455;BME280;25155;41.890;23.446;2024-01-30T02:08:59;93501.69;;;-4.31;53.14
39455;BME280;25155;41.890;23.446;2024-01-30T02:11:28;93505.47;;;-4.35;53.33
39455;BME280;25155;41.890;23.446;2024-01-30T02:13:55;93501.59;;;-4.39;54.00
39455;BME280;25155;41.890;23.446;2024-01-30T02:16:22;93500.13;;;-4.42;53.66
39455;BME280;25155;41.890;23.446;2024-01-30T02:18:50;93501.22;;;-4.45;53.83
39455;BME280;25155;41.890;23.446;2024-01-30T02:21:19;93502.47;;;-4.49;53.71
39455;BME280;25155;41.890;23.446;2024-01-30T02:23:47;93498.47;;;-4.51;53.68
39455;BME280;25155;41.890;23.446;2024-01-30T02:26:15;93498.59;;;-4.53;53.34
39455;BME280;25155;41.890;23.446;2024-01-30T02:28:42;93500.47;;;-4.55;53.77
39455;BME280;25155;41.890;23.446;2024-01-30T02:31:09;93503.19;;;-4.56;53.32
39455;BME280;25155;41.890;23.446;2024-01-30T02:33:37;93511.78;;;-4.57;53.63
39455;BME280;25155;41.890;23.446;2024-01-30T02:36:04;93504.28;;;-4.59;53.48
39455;BME280;25155;41.890;23.446;2024-01-30T02:38:33;93502.97;;;-4.63;53.00
39455;BME280;25155;41.890;23.446;2024-01-30T02:41:00;93517.47;;;-4.64;53.20
39455;BME280;25155;41.890;23.446;2024-01-30T02:43:27;93512.50;;;-4.65;53.13
39455;BME280;25155;41.890;23.446;2024-01-30T02:45:54;93507.53;;;-4.67;53.75
39455;BME280;25155;41.890;23.446;2024-01-30T02:48:21;93505.13;;;-4.68;53.26
39455;BME280;25155;41.890;23.446;2024-01-30T02:50:49;93494.13;;;-4.69;53.14
39455;BME280;25155;41.890;23.446;2024-01-30T02:53:16;93496.66;;;-4.69;53.58
39455;BME280;25155;41.890;23.446;2024-01-30T02:55:44;93495.22;;;-4.71;52.90
39455;BME280;25155;41.890;23.446;2024-01-30T02:58:12;93491.06;;;-4.72;53.46
39455;BME280;25155;41.890;23.446;2024-01-30T03:00:39;93485.94;;;-4.72;53.36
39455;BME280;25155;41.890;23.446;2024-01-30T03:03:06;93491.97;;;-4.73;53.32
39455;BME280;25155;41.890;23.446;2024-01-30T03:05:33;93483.81;;;-4.77;52.99
39455;BME280;25155;41.890;23.446;2024-01-30T03:08:00;93491.53;;;-4.87;53.00
39455;BME280;25155;41.890;23.446;2024-01-30T03:10:27;93492.91;;;-4.92;53.05
39455;BME280;25155;41.890;23.446;2024-01-30T03:12:56;93495.22;;;-4.99;53.13
39455;BME280;25155;41.890;23.446;2024-01-30T03:15:23;93491.47;;;-5.05;53.89
39455;BME280;25155;41.890;23.446;2024-01-30T03:17:50;93490.97;;;-5.08;54.38
39455;BME280;25155;41.890;23.446;2024-01-30T03:20:17;93484.09;;;-5.08;54.45
39455;BME280;25155;41.890;23.446;2024-01-30T03:22:45;93485.72;;;-5.07;54.16
39455;BME280;25155;41.890;23.446;2024-01-30T03:25:12;93480.63;;;-5.07;53.75
39455;BME280;25155;41.890;23.446;2024-01-30T03:27:39;93490.03;;;-5.07;54.08
39455;BME280;25155;41.890;23.446;2024-01-30T03:30:09;93483.59;;;-5.11;54.34
39455;BME280;25155;41.890;23.446;2024-01-30T03:32:36;93486.97;;;-5.11;53.79
39455;BME280;25155;41.890;23.446;2024-01-30T03:35:04;93484.41;;;-5.11;54.20
39455;BME280;25155;41.890;23.446;2024-01-30T03:37:31;93482.13;;;-5.14;53.97
39455;BME280;25155;41.890;23.446;2024-01-30T03:39:59;93484.03;;;-5.16;53.80
39455;BME280;25155;41.890;23.446;2024-01-30T03:42:26;93488.44;;;-5.18;53.94
39455;BME280;25155;41.890;23.446;2024-01-30T03:44:53;93486.88;;;-5.19;53.66
39455;BME280;25155;41.890;23.446;2024-01-30T03:47:22;93491.16;;;-5.20;53.89
39455;BME280;25155;41.890;23.446;2024-01-30T03:49:49;93489.28;;;-5.18;53.99
39455;BME280;25155;41.890;23.446;2024-01-30T03:52:17;93486.88;;;-5.19;53.60
39455;BME280;25155;41.890;23.446;2024-01-30T03:54:44;93487.00;;;-5.21;53.45
39455;BME280;25155;41.890;23.446;2024-01-30T03:57:11;93497.22;;;-5.21;53.85
39455;BME280;25155;41.890;23.446;2024-01-30T03:59:41;93494.13;;;-5.24;53.56
39455;BME280;25155;41.890;23.446;2024-01-30T04:02:10;93499.25;;;-5.24;53.72
39455;BME280;25155;41.890;23.446;2024-01-30T04:04:39;93497.63;;;-5.25;53.64
39455;BME280;25155;41.890;23.446;2024-01-30T04:07:06;93495.72;;;-5.23;53.55
39455;BME280;25155;41.890;23.446;2024-01-30T04:09:33;93491.72;;;-5.26;53.26
39455;BME280;25155;41.890;23.446;2024-01-30T04:12:00;93498.69;;;-5.28;53.60
39455;BME280;25155;41.890;23.446;2024-01-30T04:14:29;93491.34;;;-5.31;53.83
39455;BME280;25155;41.890;23.446;2024-01-30T04:16:56;93492.28;;;-5.32;53.51
39455;BME280;25155;41.890;23.446;2024-01-30T04:19:23;93491.75;;;-5.36;53.62
39455;BME280;25155;41.890;23.446;2024-01-30T04:21:52;93498.91;;;-5.39;54.19
39455;BME280;25155;41.890;23.446;2024-01-30T04:24:20;93505.84;;;-5.41;54.45
39455;BME280;25155;41.890;23.446;2024-01-30T04:26:47;93500.75;;;-5.41;54.17
39455;BME280;25155;41.890;23.446;2024-01-30T04:29:14;93509.38;;;-5.42;53.87
39455;BME280;25155;41.890;23.446;2024-01-30T04:31:41;93512.06;;;-5.44;54.23
39455;BME280;25155;41.890;23.446;2024-01-30T04:34:09;93510.72;;;-5.48;54.10
39455;BME280;25155;41.890;23.446;2024-01-30T04:36:36;93512.59;;;-5.50;53.81
39455;BME280;25155;41.890;23.446;2024-01-30T04:39:04;93511.13;;;-5.53;54.07
39455;BME280;25155;41.890;23.446;2024-01-30T04:41:31;93508.56;;;-5.53;54.07
39455;BME280;25155;41.890;23.446;2024-01-30T04:43:59;93509.53;;;-5.54;54.01
39455;BME280;25155;41.890;23.446;2024-01-30T04:46:26;93520.00;;;-5.57;53.66
39455;BME280;25155;41.890;23.446;2024-01-30T04:48:53;93515.84;;;-5.58;53.75
39455;BME280;25155;41.890;23.446;2024-01-30T04:51:21;93515.97;;;-5.59;53.53
39455;BME280;25155;41.890;23.446;2024-01-30T04:53:48;93526.31;;;-5.61;53.52
39455;BME280;25155;41.890;23.446;2024-01-30T04:56:17;93525.66;;;-5.63;53.98
39455;BME280;25155;41.890;23.446;2024-01-30T04:58:44;93525.66;;;-5.63;53.38
39455;BME280;25155;41.890;23.446;2024-01-30T05:01:15;93535.31;;;-5.66;53.70
39455;BME280;25155;41.890;23.446;2024-01-30T05:03:43;93535.75;;;-5.81;55.13
39455;BME280;25155;41.890;23.446;2024-01-30T05:06:10;93535.78;;;-6.10;56.30
39455;BME280;25155;41.890;23.446;2024-01-30T05:08:38;93532.56;;;-6.32;57.35
39455;BME280;25155;41.890;23.446;2024-01-30T05:11:05;93538.72;;;-6.34;57.20
39455;BME280;25155;41.890;23.446;2024-01-30T05:13:34;93541.66;;;-6.29;57.08
39455;BME280;25155;41.890;23.446;2024-01-30T05:16:02;93538.59;;;-6.23;56.59
39455;BME280;25155;41.890;23.446;2024-01-30T05:18:30;93532.97;;;-6.17;56.72
39455;BME280;25155;41.890;23.446;2024-01-30T05:20:57;93526.78;;;-6.14;56.09
39455;BME280;25155;41.890;23.446;2024-01-30T05:23:25;93525.59;;;-6.10;55.68
39455;BME280;25155;41.890;23.446;2024-01-30T05:25:53;93523.69;;;-6.08;55.67
39455;BME280;25155;41.890;23.446;2024-01-30T05:28:20;93530.25;;;-6.05;55.72
39455;BME280;25155;41.890;23.446;2024-01-30T05:30:48;93534.56;;;-6.06;55.78
39455;BME280;25155;41.890;23.446;2024-01-30T05:33:17;93531.09;;;-6.05;55.30
39455;BME280;25155;41.890;23.446;2024-01-30T05:35:44;93533.50;;;-6.03;55.29
39455;BME280;25155;41.890;23.446;2024-01-30T05:38:12;93525.72;;;-6.02;55.38
39455;BME280;25155;41.890;23.446;2024-01-30T05:40:39;93534.16;;;-6.01;55.13
39455;BME280;25155;41.890;23.446;2024-01-30T05:43:06;93536.84;;;-6.03;55.42
39455;BME280;25155;41.890;23.446;2024-01-30T05:45:34;93541.41;;;-6.06;55.48
39455;BME280;25155;41.890;23.446;2024-01-30T05:48:04;93539.00;;;-6.08;55.56
39455;BME280;25155;41.890;23.446;2024-01-30T05:50:31;93543.97;;;-6.06;55.45
39455;BME280;25155;41.890;23.446;2024-01-30T05:52:59;93540.63;;;-6.07;55.66
39455;BME280;25155;41.890;23.446;2024-01-30T05:55:26;93541.28;;;-6.05;55.33
39455;BME280;25155;41.890;23.446;2024-01-30T05:57:53;93543.69;;;-6.03;55.05
39455;BME280;25155;41.890;23.446;2024-01-30T06:00:21;93540.88;;;-6.10;55.51
39455;BME280;25155;41.890;23.446;2024-01-30T06:02:50;93547.16;;;-6.14;55.89
39455;BME280;25155;41.890;23.446;2024-01-30T06:05:19;93537.75;;;-5.84;56.12
39455;BME280;25155;41.890;23.446;2024-01-30T06:07:46;93533.72;;;-4.83;56.43
39455;BME280;25155;41.890;23.446;2024-01-30T06:10:13;93536.84;;;-3.71;54.87
39455;BME280;25155;41.890;23.446;2024-01-30T06:12:40;93528.91;;;-2.73;53.59
39455;BME280;25155;41.890;23.446;2024-01-30T06:15:08;93535.34;;;-1.93;51.83
39455;BME280;25155;41.890;23.446;2024-01-30T06:17:35;93531.34;;;-1.55;50.79
39455;BME280;25155;41.890;23.446;2024-01-30T06:20:03;93528.00;;;-1.80;50.15
39455;BME280;25155;41.890;23.446;2024-01-30T06:22:32;93521.97;;;-2.30;50.70
39455;BME280;25155;41.890;23.446;2024-01-30T06:24:59;93538.53;;;-2.67;50.93
39455;BME280;25155;41.890;23.446;2024-01-30T06:27:27;93530.41;;;-2.97;51.59
39455;BME280;25155;41.890;23.446;2024-01-30T06:29:54;93541.22;;;-3.11;52.34
39455;BME280;25155;41.890;23.446;2024-01-30T06:32:22;93536.38;;;-3.22;51.95
39455;BME280;25155;41.890;23.446;2024-01-30T06:34:49;93529.59;;;-3.32;52.39
39455;BME280;25155;41.890;23.446;2024-01-30T06:37:16;93526.97;;;-3.40;52.53
39455;BME280;25155;41.890;23.446;2024-01-30T06:39:44;93532.09;;;-3.40;52.51
39455;BME280;25155;41.890;23.446;2024-01-30T06:42:11;93530.47;;;-3.41;52.43
39455;BME280;25155;41.890;23.446;2024-01-30T06:44:39;93534.97;;;-3.43;52.28
39455;BME280;25155;41.890;23.446;2024-01-30T06:47:06;93536.28;;;-3.39;53.02
39455;BME280;25155;41.890;23.446;2024-01-30T06:49:33;93541.44;;;-3.31;53.12
39455;BME280;25155;41.890;23.446;2024-01-30T06:52:04;93549.19;;;-3.22;52.85
39455;BME280;25155;41.890;23.446;2024-01-30T06:54:31;93546.66;;;-3.14;53.25
39455;BME280;25155;41.890;23.446;2024-01-30T06:57:01;93547.94;;;-3.10;52.96
39455;BME280;25155;41.890;23.446;2024-01-30T06:59:28;93556.97;;;-3.06;53.13
39455;BME280;25155;41.890;23.446;2024-01-30T07:01:56;93558.69;;;-3.06;53.22
39455;BME280;25155;41.890;23.446;2024-01-30T07:04:23;93561.25;;;-3.06;52.86
39455;BME280;25155;41.890;23.446;2024-01-30T07:06:50;93560.94;;;-3.03;52.97
39455;BME280;25155;41.890;23.446;2024-01-30T07:09:19;93570.59;;;-2.97;53.47
39455;BME280;25155;41.890;23.446;2024-01-30T07:11:46;93562.31;;;-2.91;53.09
39455;BME280;25155;41.890;23.446;2024-01-30T07:14:14;93560.75;;;-2.84;53.49
39455;BME280;25155;41.890;23.446;2024-01-30T07:16:41;93562.19;;;-2.81;53.04
39455;BME280;25155;41.890;23.446;2024-01-30T07:19:09;93559.31;;;-2.78;53.15
39455;BME280;25155;41.890;23.446;2024-01-30T07:21:36;93551.63;;;-2.78;53.50
39455;BME280;25155;41.890;23.446;2024-01-30T07:24:06;93556.16;;;-2.72;53.46
39455;BME280;25155;41.890;23.446;2024-01-30T07:26:34;93552.16;;;-2.66;53.29
39455;BME280;25155;41.890;23.446;2024-01-30T07:29:02;93559.88;;;-2.58;53.14
39455;BME280;25155;41.890;23.446;2024-01-30T07:31:31;93568.72;;;-2.52;53.08
39455;BME280;25155;41.890;23.446;2024-01-30T07:33:58;93560.91;;;-2.43;53.01
39455;BME280;25155;41.890;23.446;2024-01-30T07:36:25;93569.41;;;-2.34;52.81
39455;BME280;25155;41.890;23.446;2024-01-30T07:38:53;93563.84;;;-2.21;52.62
39455;BME280;25155;41.890;23.446;2024-01-30T07:41:21;93563.72;;;-2.11;52.98
39455;BME280;25155;41.890;23.446;2024-01-30T07:43:48;93579.13;;;-2.03;52.00
39455;BME280;25155;41.890;23.446;2024-01-30T07:46:15;93575.28;;;-1.91;52.36
39455;BME280;25155;41.890;23.446;2024-01-30T07:48:44;93581.22;;;-1.82;52.21
39455;BME280;25155;41.890;23.446;2024-01-30T07:51:11;93571.63;;;-1.72;52.24
39455;BME280;25155;41.890;23.446;2024-01-30T07:53:38;93564.56;;;-1.61;51.97
39455;BME280;25155;41.890;23.446;2024-01-30T07:56:08;93558.94;;;-1.49;52.50
39455;BME280;25155;41.890;23.446;2024-01-30T07:58:35;93560.38;;;-1.38;51.66
39455;BME280;25155;41.890;23.446;2024-01-30T08:01:02;93563.41;;;-1.26;51.62
39455;BME280;25155;41.890;23.446;2024-01-30T08:03:29;93555.38;;;-1.15;51.61
39455;BME280;25155;41.890;23.446;2024-01-30T08:05:58;93567.56;;;-1.09;50.66
39455;BME280;25155;41.890;23.446;2024-01-30T08:08:25;93557.44;;;-1.02;50.52
39455;BME280;25155;41.890;23.446;2024-01-30T08:10:52;93565.63;;;-0.98;50.44
39455;BME280;25155;41.890;23.446;2024-01-30T08:13:20;93564.00;;;-0.99;49.95
39455;BME280;25155;41.890;23.446;2024-01-30T08:15:47;93560.28;;;-0.88;50.93
39455;BME280;25155;41.890;23.446;2024-01-30T08:18:14;93556.91;;;-0.81;49.75
39455;BME280;25155;41.890;23.446;2024-01-30T08:20:41;93553.69;;;-0.83;49.46
39455;BME280;25155;41.890;23.446;2024-01-30T08:23:10;93558.50;;;-0.80;49.89
39455;BME280;25155;41.890;23.446;2024-01-30T08:25:37;93554.78;;;-0.69;49.24
39455;BME280;25155;41.890;23.446;2024-01-30T08:28:04;93558.28;;;-0.62;49.12
39455;BME280;25155;41.890;23.446;2024-01-30T08:30:33;93552.63;;;-0.57;48.44
39455;BME280;25155;41.890;23.446;2024-01-30T08:33:01;93550.81;;;-0.48;48.56
39455;BME280;25155;41.890;23.446;2024-01-30T08:35:28;93548.84;;;-0.38;48.54
39455;BME280;25155;41.890;23.446;2024-01-30T08:37:59;93557.50;;;-0.31;48.66
39455;BME280;25155;41.890;23.446;2024-01-30T08:40:28;93552.16;;;-0.21;48.88
39455;BME280;25155;41.890;23.446;2024-01-30T08:42:55;93544.53;;;-0.06;48.72
39455;BME280;25155;41.890;23.446;2024-01-30T08:45:22;93547.50;;;0.06;48.56
39455;BME280;25155;41.890;23.446;2024-01-30T08:47:50;93547.09;;;0.17;47.18
39455;BME280;25155;41.890;23.446;2024-01-30T08:50:17;93547.41;;;0.22;47.34
39455;BME280;25155;41.890;23.446;2024-01-30T08:52:44;93548.28;;;0.29;47.12
39455;BME280;25155;41.890;23.446;2024-01-30T08:55:11;93543.38;;;0.43;46.31
39455;BME280;25155;41.890;23.446;2024-01-30T08:57:40;93542.91;;;0.39;44.80
39455;BME280;25155;41.890;23.446;2024-01-30T09:00:08;93545.91;;;0.28;44.49
39455;BME280;25155;41.890;23.446;2024-01-30T09:02:36;93544.28;;;0.27;45.12
39455;BME280;25155;41.890;23.446;2024-01-30T09:05:04;93540.50;;;0.37;45.77
39455;BME280;25155;41.890;23.446;2024-01-30T09:07:31;93541.53;;;0.51;45.17
39455;BME280;25155;41.890;23.446;2024-01-30T09:09:58;93539.78;;;0.67;45.70
39455;BME280;25155;41.890;23.446;2024-01-30T09:12:25;93543.00;;;0.69;44.22
39455;BME280;25155;41.890;23.446;2024-01-30T09:14:54;93546.09;;;0.64;44.50
39455;BME280;25155;41.890;23.446;2024-01-30T09:17:21;93541.22;;;0.69;43.38
39455;BME280;25155;41.890;23.446;2024-01-30T09:19:48;93535.09;;;0.70;43.45
39455;BME280;25155;41.890;23.446;2024-01-30T09:22:15;93528.53;;;0.83;44.00
39455;BME280;25155;41.890;23.446;2024-01-30T09:24:43;93535.94;;;1.01;44.50
39455;BME280;25155;41.890;23.446;2024-01-30T09:27:10;93528.97;;;1.16;44.17
39455;BME280;25155;41.890;23.446;2024-01-30T09:29:37;93529.19;;;1.29;44.46
39455;BME280;25155;41.890;23.446;2024-01-30T09:32:07;93516.09;;;1.31;42.39
39455;BME280;25155;41.890;23.446;2024-01-30T09:34:35;93519.81;;;1.43;43.12
39455;BME280;25155;41.890;23.446;2024-01-30T09:37:03;93514.03;;;1.56;43.34
39455;BME280;25155;41.890;23.446;2024-01-30T09:39:30;93520.84;;;1.64;42.94
39455;BME280;25155;41.890;23.446;2024-01-30T09:42:04;93519.97;;;1.72;42.37
39455;BME280;25155;41.890;23.446;2024-01-30T09:44:32;93504.72;;;1.77;41.85
39455;BME280;25155;41.890;23.446;2024-01-30T09:47:02;93518.53;;;1.69;41.02
39455;BME280;25155;41.890;23.446;2024-01-30T09:49:34;93512.50;;;1.62;41.50
39455;BME280;25155;41.890;23.446;2024-01-30T09:52:02;93507.06;;;1.72;41.90
39455;BME280;25155;41.890;23.446;2024-01-30T09:54:30;93504.53;;;1.78;40.78
39455;BME280;25155;41.890;23.446;2024-01-30T09:56:58;93498.84;;;1.83;41.30
39455;BME280;25155;41.890;23.446;2024-01-30T09:59:25;93491.41;;;1.95;41.22
39455;BME280;25155;41.890;23.446;2024-01-30T10:01:52;93494.91;;;2.09;41.85
39455;BME280;25155;41.890;23.446;2024-01-30T10:04:19;93495.44;;;2.19;41.42
39455;BME280;25155;41.890;23.446;2024-01-30T10:06:48;93488.34;;;2.28;41.02
39455;BME280;25155;41.890;23.446;2024-01-30T10:09:15;93481.50;;;2.41;41.18
39455;BME280;25155;41.890;23.446;2024-01-30T10:11:42;93470.84;;;2.51;40.96
39455;BME280;25155;41.890;23.446;2024-01-30T10:14:09;93469.72;;;2.60;40.61
39455;BME280;25155;41.890;23.446;2024-01-30T10:16:36;93462.06;;;2.74;41.17
39455;BME280;25155;41.890;23.446;2024-01-30T10:19:03;93458.56;;;2.88;41.28
39455;BME280;25155;41.890;23.446;2024-01-30T10:21:31;93460.78;;;2.98;41.21
39455;BME280;25155;41.890;23.446;2024-01-30T10:23:59;93449.97;;;2.81;39.93
39455;BME280;25155;41.890;23.446;2024-01-30T10:26:26;93443.66;;;2.55;38.83
39455;BME280;25155;41.890;23.446;2024-01-30T10:28:55;93436.97;;;2.39;39.24
39455;BME280;25155;41.890;23.446;2024-01-30T10:31:22;93431.38;;;2.36;39.32
39455;BME280;25155;41.890;23.446;2024-01-30T10:33:50;93424.38;;;2.30;40.03
39455;BME280;25155;41.890;23.446;2024-01-30T10:36:17;93428.81;;;2.36;40.72
39455;BME280;25155;41.890;23.446;2024-01-30T10:38:46;93424.97;;;2.60;40.92
39455;BME280;25155;41.890;23.446;2024-01-30T10:41:19;93414.56;;;2.81;41.08
39455;BME280;25155;41.890;23.446;2024-01-30T10:43:58;93412.69;;;3.04;41.27
39455;BME280;25155;41.890;23.446;2024-01-30T10:46:31;93408.41;;;3.24;40.28
39455;BME280;25155;41.890;23.446;2024-01-30T10:48:59;93407.66;;;3.44;40.91
39455;BME280;25155;41.890;23.446;2024-01-30T10:51:28;93407.13;;;3.55;39.45
39455;BME280;25155;41.890;23.446;2024-01-30T10:53:56;93402.34;;;3.65;39.47
39455;BME280;25155;41.890;23.446;2024-01-30T10:56:25;93400.56;;;3.72;38.28
39455;BME280;25155;41.890;23.446;2024-01-30T10:58:53;93398.41;;;3.83;39.39
39455;BME280;25155;41.890;23.446;2024-01-30T11:01:22;93390.69;;;3.96;39.78
39455;BME280;25155;41.890;23.446;2024-01-30T11:03:51;93377.34;;;4.13;39.62
39455;BME280;25155;41.890;23.446;2024-01-30T11:06:18;93379.53;;;4.22;38.59
39455;BME280;25155;41.890;23.446;2024-01-30T11:09:00;93377.34;;;4.26;37.62
39455;BME280;25155;41.890;23.446;2024-01-30T11:11:30;93372.34;;;4.31;36.97
39455;BME280;25155;41.890;23.446;2024-01-30T11:14:00;93370.34;;;4.40;37.79
39455;BME280;25155;41.890;23.446;2024-01-30T11:16:32;93368.75;;;4.52;37.35
39455;BME280;25155;41.890;23.446;2024-01-30T11:19:00;93367.31;;;4.63;38.24
39455;BME280;25155;41.890;23.446;2024-01-30T11:21:28;93361.72;;;4.73;37.65
39455;BME280;25155;41.890;23.446;2024-01-30T11:23:55;93350.31;;;4.80;38.15
39455;BME280;25155;41.890;23.446;2024-01-30T11:26:27;93352.06;;;4.87;36.43
39455;BME280;25155;41.890;23.446;2024-01-30T11:28:56;93335.31;;;4.89;36.29
39455;BME280;25155;41.890;23.446;2024-01-30T11:31:23;93337.13;;;4.89;35.63
39455;BME280;25155;41.890;23.446;2024-01-30T11:33:52;93323.97;;;4.83;37.38
39455;BME280;25155;41.890;23.446;2024-01-30T11:36:25;93337.06;;;5.02;37.35
39455;BME280;25155;41.890;23.446;2024-01-30T11:38:52;93335.81;;;5.11;36.00
39455;BME280;25155;41.890;23.446;2024-01-30T11:41:20;93335.03;;;5.11;36.45
39455;BME280;25155;41.890;23.446;2024-01-30T11:43:51;93335.03;;;5.11;36.02
39455;BME280;25155;41.890;23.446;2024-01-30T11:46:20;93337.78;;;5.23;36.43
39455;BME280;25155;41.890;23.446;2024-01-30T11:48:47;93332.09;;;5.39;36.77
39455;BME280;25155;41.890;23.446;2024-01-30T11:51:15;93328.94;;;5.37;35.12
39455;BME280;25155;41.890;23.446;2024-01-30T11:53:45;93337.78;;;5.23;34.18
39455;BME280;25155;41.890;23.446;2024-01-30T11:56:16;93338.63;;;5.10;34.47
39455;BME280;25155;41.890;23.446;2024-01-30T11:58:44;93330.88;;;5.03;34.27
39455;BME280;25155;41.890;23.446;2024-01-30T12:01:11;93336.22;;;5.08;35.10
39455;BME280;25155;41.890;23.446;2024-01-30T12:03:39;93324.78;;;5.23;35.61
39455;BME280;25155;41.890;23.446;2024-01-30T12:06:06;93325.31;;;5.38;36.02
39455;BME280;25155;41.890;23.446;2024-01-30T12:08:35;93317.22;;;5.53;36.34
39455;BME280;25155;41.890;23.446;2024-01-30T12:11:02;93314.94;;;5.70;36.72
39455;BME280;25155;41.890;23.446;2024-01-30T12:13:31;93314.28;;;5.81;35.46
39455;BME280;25155;41.890;23.446;2024-01-30T12:15:58;93314.03;;;5.83;34.69
39455;BME280;25155;41.890;23.446;2024-01-30T12:18:26;93315.06;;;5.82;33.95
39455;BME280;25155;41.890;23.446;2024-01-30T12:20:58;93308.56;;;5.66;33.18
39455;BME280;25155;41.890;23.446;2024-01-30T12:23:27;93306.22;;;5.57;34.38
39455;BME280;25155;41.890;23.446;2024-01-30T12:25:54;93300.41;;;5.62;33.79
39455;BME280;25155;41.890;23.446;2024-01-30T12:28:21;93294.00;;;5.65;33.72
39455;BME280;25155;41.890;23.446;2024-01-30T12:30:55;93299.25;;;5.58;33.38
39455;BME280;25155;41.890;23.446;2024-01-30T12:33:26;93306.63;;;5.54;33.22
39455;BME280;25155;41.890;23.446;2024-01-30T12:35:53;93305.91;;;5.47;33.05
39455;BME280;25155;41.890;23.446;2024-01-30T12:38:22;93297.69;;;5.50;33.36
39455;BME280;25155;41.890;23.446;2024-01-30T12:40:50;93305.44;;;5.57;33.04
39455;BME280;25155;41.890;23.446;2024-01-30T12:43:17;93292.41;;;5.64;33.93
39455;BME280;25155;41.890;23.446;2024-01-30T12:45:44;93292.47;;;5.82;34.93
39455;BME280;25155;41.890;23.446;2024-01-30T12:48:11;93280.97;;;5.97;32.98
39455;BME280;25155;41.890;23.446;2024-01-30T12:50:38;93285.75;;;6.00;33.73
39455;BME280;25155;41.890;23.446;2024-01-30T12:53:05;93283.44;;;6.10;33.63
39455;BME280;25155;41.890;23.446;2024-01-30T12:55:34;93279.47;;;6.07;33.00